« Back
NWS Peachtree City, Ga » Text Product » AHN Terminal Aerodrome Forecast


Printer-friendly Version
Current Version              Previous Versions:   1  2  3  4  5  6  7  8  9  

Terminal Aerodrome Forecast

765
FTUS42 KFFC 302300
TAFAHN
TAF
KAHN 302320Z 3100/3124 00000KT P6SM SKC
     FM311400 30007KT P6SM SCT120
     FM312000 29010G18KT P6SM BKN080=

USA.gov is the U.S. government's official web portal to all federal, state and local government web resources and services.